sensor_id;sensor_type;location;lat;lon;timestamp;P1;durP1;ratioP1;P2;durP2;ratioP2
2622;SDS011;1321;48.690;9.022;2024-03-02T00:00:55;6.57;;;5.97;;
2622;SDS011;1321;48.690;9.022;2024-03-02T00:03:23;6.77;;;6.17;;
2622;SDS011;1321;48.690;9.022;2024-03-02T00:05:53;7.27;;;6.57;;
2622;SDS011;1321;48.690;9.022;2024-03-02T00:08:23;6.87;;;6.27;;
2622;SDS011;1321;48.690;9.022;2024-03-02T00:10:56;7.03;;;6.43;;
2622;SDS011;1321;48.690;9.022;2024-03-02T00:13:25;7.20;;;6.50;;
2622;SDS011;1321;48.690;9.022;2024-03-02T00:15:54;6.67;;;6.07;;
2622;SDS011;1321;48.690;9.022;2024-03-02T00:18:24;6.30;;;5.80;;
2622;SDS011;1321;48.690;9.022;2024-03-02T00:20:55;6.70;;;6.10;;
2622;SDS011;1321;48.690;9.022;2024-03-02T00:23:24;7.00;;;6.30;;
2622;SDS011;1321;48.690;9.022;2024-03-02T00:25:57;6.40;;;5.80;;
2622;SDS011;1321;48.690;9.022;2024-03-02T00:28:26;6.33;;;5.77;;
2622;SDS011;1321;48.690;9.022;2024-03-02T00:31:01;8.87;;;7.37;;
2622;SDS011;1321;48.690;9.022;2024-03-02T00:33:34;7.60;;;6.90;;
2622;SDS011;1321;48.690;9.022;2024-03-02T00:36:05;7.47;;;6.77;;
2622;SDS011;1321;48.690;9.022;2024-03-02T00:38:34;8.00;;;7.20;;
2622;SDS011;1321;48.690;9.022;2024-03-02T00:41:15;7.83;;;7.10;;
2622;SDS011;1321;48.690;9.022;2024-03-02T00:43:45;8.43;;;7.63;;
2622;SDS011;1321;48.690;9.022;2024-03-02T00:46:17;8.20;;;7.30;;
2622;SDS011;1321;48.690;9.022;2024-03-02T00:48:55;7.70;;;6.90;;
2622;SDS011;1321;48.690;9.022;2024-03-02T00:51:26;9.33;;;7.30;;
2622;SDS011;1321;48.690;9.022;2024-03-02T00:53:58;7.77;;;7.10;;
2622;SDS011;1321;48.690;9.022;2024-03-02T00:56:27;7.50;;;6.80;;
2622;SDS011;1321;48.690;9.022;2024-03-02T00:58:55;7.30;;;6.57;;
2622;SDS011;1321;48.690;9.022;2024-03-02T01:01:24;8.63;;;7.20;;
2622;SDS011;1321;48.690;9.022;2024-03-02T01:03:52;9.30;;;8.07;;
2622;SDS011;1321;48.690;9.022;2024-03-02T01:06:21;10.93;;;8.13;;
2622;SDS011;1321;48.690;9.022;2024-03-02T01:08:51;9.30;;;8.40;;
2622;SDS011;1321;48.690;9.022;2024-03-02T01:11:19;8.33;;;7.53;;
2622;SDS011;1321;48.690;9.022;2024-03-02T01:13:49;10.53;;;8.10;;
2622;SDS011;1321;48.690;9.022;2024-03-02T01:16:18;16.57;;;8.00;;
2622;SDS011;1321;48.690;9.022;2024-03-02T01:18:46;10.00;;;8.33;;
2622;SDS011;1321;48.690;9.022;2024-03-02T01:21:15;9.33;;;8.47;;
2622;SDS011;1321;48.690;9.022;2024-03-02T01:23:43;10.03;;;8.53;;
2622;SDS011;1321;48.690;9.022;2024-03-02T01:26:13;10.33;;;8.13;;
2622;SDS011;1321;48.690;9.022;2024-03-02T01:28:42;9.00;;;7.97;;
2622;SDS011;1321;48.690;9.022;2024-03-02T01:31:10;8.90;;;7.60;;
2622;SDS011;1321;48.690;9.022;2024-03-02T01:33:39;9.87;;;8.10;;
2622;SDS011;1321;48.690;9.022;2024-03-02T01:36:07;8.30;;;7.60;;
2622;SDS011;1321;48.690;9.022;2024-03-02T01:38:36;9.17;;;7.93;;
2622;SDS011;1321;48.690;9.022;2024-03-02T01:41:04;10.10;;;8.40;;
2622;SDS011;1321;48.690;9.022;2024-03-02T01:43:33;8.93;;;8.03;;
2622;SDS011;1321;48.690;9.022;2024-03-02T01:46:06;10.43;;;9.00;;
2622;SDS011;1321;48.690;9.022;2024-03-02T01:48:35;10.23;;;9.17;;
2622;SDS011;1321;48.690;9.022;2024-03-02T01:51:04;9.30;;;8.30;;
2622;SDS011;1321;48.690;9.022;2024-03-02T01:53:33;10.57;;;9.47;;
2622;SDS011;1321;48.690;9.022;2024-03-02T01:56:02;8.60;;;7.67;;
2622;SDS011;1321;48.690;9.022;2024-03-02T01:58:30;11.27;;;9.07;;
2622;SDS011;1321;48.690;9.022;2024-03-02T02:01:00;9.87;;;8.87;;
2622;SDS011;1321;48.690;9.022;2024-03-02T02:03:28;9.53;;;8.40;;
2622;SDS011;1321;48.690;9.022;2024-03-02T02:05:56;12.30;;;9.10;;
2622;SDS011;1321;48.690;9.022;2024-03-02T02:08:25;10.23;;;9.10;;
2622;SDS011;1321;48.690;9.022;2024-03-02T02:10:53;12.00;;;9.03;;
2622;SDS011;1321;48.690;9.022;2024-03-02T02:13:22;10.00;;;8.17;;
2622;SDS011;1321;48.690;9.022;2024-03-02T02:15:50;11.90;;;9.57;;
2622;SDS011;1321;48.690;9.022;2024-03-02T02:18:21;11.27;;;10.20;;
2622;SDS011;1321;48.690;9.022;2024-03-02T02:20:49;10.60;;;8.30;;
2622;SDS011;1321;48.690;9.022;2024-03-02T02:23:19;10.87;;;8.00;;
2622;SDS011;1321;48.690;9.022;2024-03-02T02:25:47;9.80;;;8.77;;
2622;SDS011;1321;48.690;9.022;2024-03-02T02:28:15;11.90;;;9.50;;
2622;SDS011;1321;48.690;9.022;2024-03-02T02:30:43;13.67;;;10.13;;
2622;SDS011;1321;48.690;9.022;2024-03-02T02:33:12;9.67;;;8.30;;
2622;SDS011;1321;48.690;9.022;2024-03-02T02:35:40;9.60;;;8.50;;
2622;SDS011;1321;48.690;9.022;2024-03-02T02:38:08;14.53;;;10.80;;
2622;SDS011;1321;48.690;9.022;2024-03-02T02:40:38;10.60;;;9.10;;
2622;SDS011;1321;48.690;9.022;2024-03-02T02:43:06;9.73;;;8.73;;
2622;SDS011;1321;48.690;9.022;2024-03-02T02:45:34;10.00;;;9.00;;
2622;SDS011;1321;48.690;9.022;2024-03-02T02:48:03;9.93;;;8.37;;
2622;SDS011;1321;48.690;9.022;2024-03-02T02:50:32;10.03;;;8.40;;
2622;SDS011;1321;48.690;9.022;2024-03-02T02:53:00;9.07;;;8.17;;
2622;SDS011;1321;48.690;9.022;2024-03-02T02:55:28;9.80;;;8.63;;
2622;SDS011;1321;48.690;9.022;2024-03-02T02:57:58;10.57;;;8.87;;
2622;SDS011;1321;48.690;9.022;2024-03-02T03:00:26;9.63;;;8.07;;
2622;SDS011;1321;48.690;9.022;2024-03-02T03:02:55;8.10;;;7.30;;
2622;SDS011;1321;48.690;9.022;2024-03-02T03:05:23;9.57;;;8.53;;
2622;SDS011;1321;48.690;9.022;2024-03-02T03:07:51;10.20;;;8.73;;
2622;SDS011;1321;48.690;9.022;2024-03-02T03:10:19;11.03;;;8.67;;
2622;SDS011;1321;48.690;9.022;2024-03-02T03:12:49;9.83;;;8.93;;
2622;SDS011;1321;48.690;9.022;2024-03-02T03:15:19;9.87;;;8.50;;
2622;SDS011;1321;48.690;9.022;2024-03-02T03:17:48;9.73;;;8.83;;
2622;SDS011;1321;48.690;9.022;2024-03-02T03:20:17;9.50;;;8.50;;
2622;SDS011;1321;48.690;9.022;2024-03-02T03:22:48;12.00;;;8.87;;
2622;SDS011;1321;48.690;9.022;2024-03-02T03:25:16;11.67;;;8.97;;
2622;SDS011;1321;48.690;9.022;2024-03-02T03:27:44;10.63;;;8.30;;
2622;SDS011;1321;48.690;9.022;2024-03-02T03:30:13;8.90;;;8.03;;
2622;SDS011;1321;48.690;9.022;2024-03-02T03:32:43;9.97;;;8.97;;
2622;SDS011;1321;48.690;9.022;2024-03-02T03:35:11;9.40;;;7.97;;
2622;SDS011;1321;48.690;9.022;2024-03-02T03:37:41;8.37;;;7.47;;
2622;SDS011;1321;48.690;9.022;2024-03-02T03:40:09;8.57;;;7.67;;
2622;SDS011;1321;48.690;9.022;2024-03-02T03:42:38;9.90;;;8.50;;
2622;SDS011;1321;48.690;9.022;2024-03-02T03:45:07;11.37;;;8.53;;
2622;SDS011;1321;48.690;9.022;2024-03-02T03:47:35;10.10;;;7.53;;
2622;SDS011;1321;48.690;9.022;2024-03-02T03:50:06;8.37;;;7.50;;
2622;SDS011;1321;48.690;9.022;2024-03-02T03:52:34;8.37;;;7.57;;
2622;SDS011;1321;48.690;9.022;2024-03-02T03:55:03;10.40;;;8.03;;
2622;SDS011;1321;48.690;9.022;2024-03-02T03:57:32;10.17;;;8.57;;
2622;SDS011;1321;48.690;9.022;2024-03-02T04:00:01;9.40;;;8.50;;
2622;SDS011;1321;48.690;9.022;2024-03-02T04:02:30;10.93;;;9.83;;
2622;SDS011;1321;48.690;9.022;2024-03-02T04:04:58;9.07;;;7.87;;
2622;SDS011;1321;48.690;9.022;2024-03-02T04:07:28;9.37;;;8.37;;
2622;SDS011;1321;48.690;9.022;2024-03-02T04:09:56;8.47;;;7.77;;
2622;SDS011;1321;48.690;9.022;2024-03-02T04:12:25;8.37;;;7.47;;
2622;SDS011;1321;48.690;9.022;2024-03-02T04:14:53;8.10;;;7.30;;
2622;SDS011;1321;48.690;9.022;2024-03-02T04:17:21;7.80;;;7.20;;
2622;SDS011;1321;48.690;9.022;2024-03-02T04:19:49;8.03;;;7.23;;
2622;SDS011;1321;48.690;9.022;2024-03-02T04:22:17;8.93;;;7.10;;
2622;SDS011;1321;48.690;9.022;2024-03-02T04:24:52;7.90;;;7.03;;
2622;SDS011;1321;48.690;9.022;2024-03-02T04:27:20;7.77;;;7.07;;
2622;SDS011;1321;48.690;9.022;2024-03-02T04:29:49;8.63;;;7.83;;
2622;SDS011;1321;48.690;9.022;2024-03-02T04:32:17;8.10;;;7.50;;
2622;SDS011;1321;48.690;9.022;2024-03-02T04:34:46;8.57;;;7.77;;
2622;SDS011;1321;48.690;9.022;2024-03-02T04:37:14;9.13;;;8.23;;
2622;SDS011;1321;48.690;9.022;2024-03-02T04:39:42;11.10;;;7.70;;
2622;SDS011;1321;48.690;9.022;2024-03-02T04:42:12;8.90;;;8.10;;
2622;SDS011;1321;48.690;9.022;2024-03-02T04:44:40;8.53;;;7.63;;
2622;SDS011;1321;48.690;9.022;2024-03-02T04:47:08;8.63;;;7.50;;
2622;SDS011;1321;48.690;9.022;2024-03-02T04:49:37;11.00;;;8.60;;
2622;SDS011;1321;48.690;9.022;2024-03-02T04:52:05;9.43;;;8.07;;
2622;SDS011;1321;48.690;9.022;2024-03-02T04:54:33;8.83;;;7.93;;
2622;SDS011;1321;48.690;9.022;2024-03-02T04:57:24;8.77;;;7.00;;
2622;SDS011;1321;48.690;9.022;2024-03-02T04:59:51;8.23;;;7.57;;
2622;SDS011;1321;48.690;9.022;2024-03-02T05:02:19;8.20;;;7.13;;
2622;SDS011;1321;48.690;9.022;2024-03-02T05:04:47;7.70;;;6.87;;
2622;SDS011;1321;48.690;9.022;2024-03-02T05:07:15;8.23;;;7.37;;
2622;SDS011;1321;48.690;9.022;2024-03-02T05:09:43;9.40;;;8.30;;
2622;SDS011;1321;48.690;9.022;2024-03-02T05:12:12;8.27;;;7.50;;
2622;SDS011;1321;48.690;9.022;2024-03-02T05:15:03;8.33;;;7.47;;
2622;SDS011;1321;48.690;9.022;2024-03-02T05:17:32;7.40;;;6.80;;
2622;SDS011;1321;48.690;9.022;2024-03-02T05:20:00;8.57;;;7.77;;
2622;SDS011;1321;48.690;9.022;2024-03-02T05:22:29;8.90;;;7.13;;
2622;SDS011;1321;48.690;9.022;2024-03-02T05:24:57;8.20;;;7.30;;
2622;SDS011;1321;48.690;9.022;2024-03-02T05:27:27;7.63;;;6.43;;
2622;SDS011;1321;48.690;9.022;2024-03-02T05:29:55;9.10;;;7.87;;
2622;SDS011;1321;48.690;9.022;2024-03-02T05:32:26;7.63;;;6.93;;
2622;SDS011;1321;48.690;9.022;2024-03-02T05:34:54;8.93;;;7.17;;
2622;SDS011;1321;48.690;9.022;2024-03-02T05:37:22;8.60;;;7.70;;
2622;SDS011;1321;48.690;9.022;2024-03-02T05:39:50;8.90;;;7.80;;
2622;SDS011;1321;48.690;9.022;2024-03-02T05:42:19;8.87;;;7.97;;
2622;SDS011;1321;48.690;9.022;2024-03-02T05:44:47;9.40;;;7.70;;
2622;SDS011;1321;48.690;9.022;2024-03-02T05:47:15;8.23;;;7.40;;
2622;SDS011;1321;48.690;9.022;2024-03-02T05:49:45;8.53;;;7.60;;
2622;SDS011;1321;48.690;9.022;2024-03-02T05:52:13;8.77;;;7.87;;
2622;SDS011;1321;48.690;9.022;2024-03-02T05:54:41;9.73;;;7.57;;
2622;SDS011;1321;48.690;9.022;2024-03-02T05:57:09;9.50;;;7.63;;
2622;SDS011;1321;48.690;9.022;2024-03-02T05:59:58;8.60;;;7.80;;
2622;SDS011;1321;48.690;9.022;2024-03-02T06:02:26;8.30;;;7.43;;
2622;SDS011;1321;48.690;9.022;2024-03-02T06:04:56;10.40;;;7.83;;
2622;SDS011;1321;48.690;9.022;2024-03-02T06:07:24;9.33;;;7.67;;
2622;SDS011;1321;48.690;9.022;2024-03-02T06:09:52;9.53;;;8.57;;
2622;SDS011;1321;48.690;9.022;2024-03-02T06:12:20;9.47;;;7.30;;
2622;SDS011;1321;48.690;9.022;2024-03-02T06:14:49;8.70;;;7.40;;
2622;SDS011;1321;48.690;9.022;2024-03-02T06:17:17;11.30;;;8.07;;
2622;SDS011;1321;48.690;9.022;2024-03-02T06:19:46;8.73;;;7.87;;
2622;SDS011;1321;48.690;9.022;2024-03-02T06:22:15;8.40;;;7.57;;
2622;SDS011;1321;48.690;9.022;2024-03-02T06:24:45;9.63;;;7.70;;
2622;SDS011;1321;48.690;9.022;2024-03-02T06:27:13;9.43;;;7.93;;
2622;SDS011;1321;48.690;9.022;2024-03-02T06:29:42;8.13;;;7.40;;
2622;SDS011;1321;48.690;9.022;2024-03-02T06:32:10;11.00;;;7.30;;
2622;SDS011;1321;48.690;9.022;2024-03-02T06:34:38;11.57;;;9.67;;
2622;SDS011;1321;48.690;9.022;2024-03-02T06:37:05;9.67;;;8.87;;
2622;SDS011;1321;48.690;9.022;2024-03-02T06:39:35;10.87;;;9.77;;
2622;SDS011;1321;48.690;9.022;2024-03-02T06:42:03;9.30;;;8.40;;
2622;SDS011;1321;48.690;9.022;2024-03-02T06:44:32;9.87;;;8.97;;
2622;SDS011;1321;48.690;9.022;2024-03-02T06:47:01;9.10;;;8.30;;
2622;SDS011;1321;48.690;9.022;2024-03-02T06:49:30;11.73;;;8.53;;
2622;SDS011;1321;48.690;9.022;2024-03-02T06:51:58;9.40;;;8.40;;
2622;SDS011;1321;48.690;9.022;2024-03-02T06:54:26;9.90;;;7.83;;
2622;SDS011;1321;48.690;9.022;2024-03-02T06:56:56;9.27;;;8.33;;
2622;SDS011;1321;48.690;9.022;2024-03-02T06:59:24;10.77;;;9.00;;
2622;SDS011;1321;48.690;9.022;2024-03-02T07:01:52;8.73;;;7.90;;
2622;SDS011;1321;48.690;9.022;2024-03-02T07:04:21;9.10;;;8.27;;
2622;SDS011;1321;48.690;9.022;2024-03-02T07:06:49;10.37;;;8.37;;
2622;SDS011;1321;48.690;9.022;2024-03-02T07:09:17;10.63;;;9.30;;
2622;SDS011;1321;48.690;9.022;2024-03-02T07:11:49;9.20;;;8.30;;
2622;SDS011;1321;48.690;9.022;2024-03-02T07:14:19;10.57;;;9.57;;
2622;SDS011;1321;48.690;9.022;2024-03-02T07:16:48;9.83;;;8.83;;
2622;SDS011;1321;48.690;9.022;2024-03-02T07:19:16;8.90;;;8.00;;
2622;SDS011;1321;48.690;9.022;2024-03-02T07:21:45;9.87;;;7.93;;
2622;SDS011;1321;48.690;9.022;2024-03-02T07:24:13;8.53;;;7.70;;
2622;SDS011;1321;48.690;9.022;2024-03-02T07:26:42;9.80;;;8.80;;
2622;SDS011;1321;48.690;9.022;2024-03-02T07:29:14;11.77;;;8.00;;
2622;SDS011;1321;48.690;9.022;2024-03-02T07:31:43;11.45;;;9.50;;
2622;SDS011;1321;48.690;9.022;2024-03-02T07:34:11;10.10;;;8.53;;
2622;SDS011;1321;48.690;9.022;2024-03-02T07:36:39;9.27;;;7.70;;
2622;SDS011;1321;48.690;9.022;2024-03-02T07:39:08;7.90;;;7.10;;
2622;SDS011;1321;48.690;9.022;2024-03-02T07:41:37;9.83;;;8.43;;
2622;SDS011;1321;48.690;9.022;2024-03-02T07:44:05;7.83;;;7.10;;
2622;SDS011;1321;48.690;9.022;2024-03-02T07:46:33;12.83;;;7.33;;
2622;SDS011;1321;48.690;9.022;2024-03-02T07:49:03;9.67;;;7.93;;
2622;SDS011;1321;48.690;9.022;2024-03-02T07:51:31;8.73;;;6.43;;
2622;SDS011;1321;48.690;9.022;2024-03-02T07:53:59;11.37;;;10.37;;
2622;SDS011;1321;48.690;9.022;2024-03-02T07:56:27;10.10;;;9.10;;
2622;SDS011;1321;48.690;9.022;2024-03-02T07:58:56;8.57;;;7.40;;
2622;SDS011;1321;48.690;9.022;2024-03-02T08:01:27;7.57;;;6.87;;
2622;SDS011;1321;48.690;9.022;2024-03-02T08:03:56;8.87;;;7.43;;
2622;SDS011;1321;48.690;9.022;2024-03-02T08:06:26;8.23;;;7.23;;
2622;SDS011;1321;48.690;9.022;2024-03-02T08:08:55;8.60;;;7.10;;
2622;SDS011;1321;48.690;9.022;2024-03-02T08:11:24;8.30;;;7.70;;
2622;SDS011;1321;48.690;9.022;2024-03-02T08:13:53;8.13;;;7.33;;
2622;SDS011;1321;48.690;9.022;2024-03-02T08:16:22;8.07;;;7.30;;
2622;SDS011;1321;48.690;9.022;2024-03-02T08:18:51;7.17;;;6.40;;
2622;SDS011;1321;48.690;9.022;2024-03-02T08:21:20;7.97;;;6.40;;
2622;SDS011;1321;48.690;9.022;2024-03-02T08:23:50;7.17;;;6.47;;
2622;SDS011;1321;48.690;9.022;2024-03-02T08:26:18;7.70;;;6.90;;
2622;SDS011;1321;48.690;9.022;2024-03-02T08:28:46;7.33;;;6.73;;
2622;SDS011;1321;48.690;9.022;2024-03-02T08:31:15;6.30;;;5.70;;
2622;SDS011;1321;48.690;9.022;2024-03-02T08:33:43;6.70;;;6.17;;
2622;SDS011;1321;48.690;9.022;2024-03-02T08:36:11;6.83;;;6.20;;
2622;SDS011;1321;48.690;9.022;2024-03-02T08:38:39;6.57;;;5.90;;
2622;SDS011;1321;48.690;9.022;2024-03-02T08:41:09;6.10;;;5.60;;
2622;SDS011;1321;48.690;9.022;2024-03-02T08:43:40;5.90;;;5.40;;
2622;SDS011;1321;48.690;9.022;2024-03-02T08:46:09;6.90;;;6.30;;
2622;SDS011;1321;48.690;9.022;2024-03-02T08:48:37;6.82;;;6.32;;
2622;SDS011;1321;48.690;9.022;2024-03-02T08:51:05;5.27;;;4.83;;
2622;SDS011;1321;48.690;9.022;2024-03-02T08:53:35;5.57;;;5.13;;
2622;SDS011;1321;48.690;9.022;2024-03-02T08:56:04;5.20;;;4.80;;
2622;SDS011;1321;48.690;9.022;2024-03-02T08:58:34;5.27;;;4.80;;
2622;SDS011;1321;48.690;9.022;2024-03-02T09:01:02;6.43;;;5.77;;
2622;SDS011;1321;48.690;9.022;2024-03-02T09:03:31;5.23;;;4.83;;
2622;SDS011;1321;48.690;9.022;2024-03-02T09:06:00;5.17;;;4.67;;
2622;SDS011;1321;48.690;9.022;2024-03-02T09:08:28;5.33;;;4.93;;
2622;SDS011;1321;48.690;9.022;2024-03-02T09:10:56;5.37;;;4.87;;
2622;SDS011;1321;48.690;9.022;2024-03-02T09:13:24;5.67;;;5.17;;
2622;SDS011;1321;48.690;9.022;2024-03-02T09:15:54;5.53;;;5.07;;
2622;SDS011;1321;48.690;9.022;2024-03-02T09:18:22;4.53;;;4.23;;
2622;SDS011;1321;48.690;9.022;2024-03-02T09:20:51;5.70;;;5.20;;
2622;SDS011;1321;48.690;9.022;2024-03-02T09:23:19;6.40;;;5.90;;
2622;SDS011;1321;48.690;9.022;2024-03-02T09:25:48;5.70;;;4.90;;
2622;SDS011;1321;48.690;9.022;2024-03-02T09:28:16;4.83;;;4.43;;
2622;SDS011;1321;48.690;9.022;2024-03-02T09:30:44;5.90;;;5.27;;
2622;SDS011;1321;48.690;9.022;2024-03-02T09:33:14;4.37;;;4.07;;
2622;SDS011;1321;48.690;9.022;2024-03-02T09:35:43;6.07;;;4.63;;
2622;SDS011;1321;48.690;9.022;2024-03-02T09:38:11;3.83;;;3.60;;
2622;SDS011;1321;48.690;9.022;2024-03-02T09:40:40;3.67;;;3.37;;
2622;SDS011;1321;48.690;9.022;2024-03-02T09:43:09;3.80;;;3.60;;
2622;SDS011;1321;48.690;9.022;2024-03-02T09:45:38;3.90;;;3.60;;
2622;SDS011;1321;48.690;9.022;2024-03-02T09:48:06;4.90;;;3.87;;
2622;SDS011;1321;48.690;9.022;2024-03-02T09:50:36;3.03;;;2.83;;
2622;SDS011;1321;48.690;9.022;2024-03-02T09:53:05;3.43;;;3.23;;
2622;SDS011;1321;48.690;9.022;2024-03-02T09:55:35;3.00;;;2.80;;
2622;SDS011;1321;48.690;9.022;2024-03-02T09:58:03;4.40;;;4.00;;
2622;SDS011;1321;48.690;9.022;2024-03-02T10:00:32;3.50;;;3.30;;
2622;SDS011;1321;48.690;9.022;2024-03-02T10:03:00;3.10;;;2.83;;
2622;SDS011;1321;48.690;9.022;2024-03-02T10:05:28;3.53;;;2.77;;
2622;SDS011;1321;48.690;9.022;2024-03-02T10:08:01;2.87;;;2.70;;
2622;SDS011;1321;48.690;9.022;2024-03-02T10:10:39;2.90;;;2.27;;
2622;SDS011;1321;48.690;9.022;2024-03-02T10:13:10;2.20;;;2.10;;
2622;SDS011;1321;48.690;9.022;2024-03-02T10:15:39;2.30;;;2.10;;
2622;SDS011;1321;48.690;9.022;2024-03-02T10:18:09;2.20;;;2.10;;
2622;SDS011;1321;48.690;9.022;2024-03-02T10:20:38;2.10;;;2.00;;
2622;SDS011;1321;48.690;9.022;2024-03-02T10:23:13;2.10;;;2.00;;
2622;SDS011;1321;48.690;9.022;2024-03-02T10:25:42;2.00;;;1.90;;
2622;SDS011;1321;48.690;9.022;2024-03-02T10:28:23;1.80;;;1.70;;
2622;SDS011;1321;48.690;9.022;2024-03-02T10:30:51;2.27;;;2.07;;
2622;SDS011;1321;48.690;9.022;2024-03-02T10:33:20;1.73;;;1.63;;
2622;SDS011;1321;48.690;9.022;2024-03-02T10:35:48;1.37;;;1.37;;
2622;SDS011;1321;48.690;9.022;2024-03-02T10:38:19;1.83;;;1.73;;
2622;SDS011;1321;48.690;9.022;2024-03-02T10:40:47;1.60;;;1.50;;
2622;SDS011;1321;48.690;9.022;2024-03-02T10:43:16;1.70;;;1.60;;
2622;SDS011;1321;48.690;9.022;2024-03-02T10:45:46;1.80;;;1.70;;
2622;SDS011;1321;48.690;9.022;2024-03-02T10:48:18;1.50;;;1.40;;
2622;SDS011;1321;48.690;9.022;2024-03-02T10:50:48;1.30;;;1.30;;
2622;SDS011;1321;48.690;9.022;2024-03-02T10:53:18;2.70;;;1.30;;
2622;SDS011;1321;48.690;9.022;2024-03-02T10:55:47;1.30;;;1.20;;
2622;SDS011;1321;48.690;9.022;2024-03-02T10:58:19;1.10;;;1.10;;
2622;SDS011;1321;48.690;9.022;2024-03-02T11:00:48;1.17;;;1.17;;
2622;SDS011;1321;48.690;9.022;2024-03-02T11:03:16;1.27;;;1.17;;
2622;SDS011;1321;48.690;9.022;2024-03-02T11:05:45;1.10;;;1.10;;
2622;SDS011;1321;48.690;9.022;2024-03-02T11:08:16;0.90;;;0.90;;
2622;SDS011;1321;48.690;9.022;2024-03-02T11:10:48;1.00;;;1.00;;
2622;SDS011;1321;48.690;9.022;2024-03-02T11:13:20;1.13;;;1.10;;
2622;SDS011;1321;48.690;9.022;2024-03-02T11:15:52;1.10;;;1.10;;
2622;SDS011;1321;48.690;9.022;2024-03-02T11:18:23;1.00;;;1.00;;
2622;SDS011;1321;48.690;9.022;2024-03-02T11:20:52;1.13;;;1.13;;
2622;SDS011;1321;48.690;9.022;2024-03-02T11:23:22;0.90;;;0.90;;
2622;SDS011;1321;48.690;9.022;2024-03-02T11:28:46;0.90;;;0.90;;
2622;SDS011;1321;48.690;9.022;2024-03-02T11:31:14;1.10;;;1.10;;
2622;SDS011;1321;48.690;9.022;2024-03-02T11:33:43;1.40;;;1.30;;
2622;SDS011;1321;48.690;9.022;2024-03-02T11:36:11;1.40;;;1.30;;
2622;SDS011;1321;48.690;9.022;2024-03-02T11:38:40;0.90;;;0.90;;
2622;SDS011;1321;48.690;9.022;2024-03-02T11:41:12;1.17;;;1.03;;
2622;SDS011;1321;48.690;9.022;2024-03-02T11:43:41;1.57;;;0.90;;
2622;SDS011;1321;48.690;9.022;2024-03-02T11:46:12;1.00;;;1.00;;
2622;SDS011;1321;48.690;9.022;2024-03-02T11:48:42;1.10;;;1.10;;
2622;SDS011;1321;48.690;9.022;2024-03-02T11:51:11;0.90;;;0.90;;
2622;SDS011;1321;48.690;9.022;2024-03-02T11:53:41;1.17;;;1.00;;
2622;SDS011;1321;48.690;9.022;2024-03-02T11:56:10;0.90;;;0.90;;
2622;SDS011;1321;48.690;9.022;2024-03-02T11:58:41;1.10;;;1.10;;
2622;SDS011;1321;48.690;9.022;2024-03-02T12:01:10;0.90;;;0.90;;
2622;SDS011;1321;48.690;9.022;2024-03-02T12:03:40;1.03;;;1.03;;
2622;SDS011;1321;48.690;9.022;2024-03-02T12:06:08;0.90;;;0.90;;
2622;SDS011;1321;48.690;9.022;2024-03-02T12:08:37;1.03;;;1.03;;
2622;SDS011;1321;48.690;9.022;2024-03-02T12:11:07;1.00;;;1.00;;
2622;SDS011;1321;48.690;9.022;2024-03-02T12:13:35;0.80;;;0.80;;
2622;SDS011;1321;48.690;9.022;2024-03-02T12:16:04;1.00;;;1.00;;
2622;SDS011;1321;48.690;9.022;2024-03-02T12:18:33;0.90;;;0.90;;
2622;SDS011;1321;48.690;9.022;2024-03-02T12:21:02;1.60;;;1.13;;
2622;SDS011;1321;48.690;9.022;2024-03-02T12:23:33;1.30;;;0.90;;
2622;SDS011;1321;48.690;9.022;2024-03-02T12:26:01;1.30;;;1.20;;
2622;SDS011;1321;48.690;9.022;2024-03-02T12:28:31;0.90;;;0.90;;
2622;SDS011;1321;48.690;9.022;2024-03-02T12:31:01;1.83;;;1.10;;
2622;SDS011;1321;48.690;9.022;2024-03-02T12:33:29;1.00;;;1.00;;
2622;SDS011;1321;48.690;9.022;2024-03-02T12:35:58;1.47;;;1.03;;
2622;SDS011;1321;48.690;9.022;2024-03-02T12:38:26;1.13;;;1.10;;
2622;SDS011;1321;48.690;9.022;2024-03-02T12:40:55;1.00;;;1.00;;
2622;SDS011;1321;48.690;9.022;2024-03-02T12:43:24;1.00;;;1.00;;
2622;SDS011;1321;48.690;9.022;2024-03-02T12:45:58;1.03;;;1.03;;
2622;SDS011;1321;48.690;9.022;2024-03-02T12:48:26;1.00;;;1.00;;
2622;SDS011;1321;48.690;9.022;2024-03-02T12:50:55;1.20;;;1.20;;
2622;SDS011;1321;48.690;9.022;2024-03-02T12:53:23;1.10;;;1.10;;
2622;SDS011;1321;48.690;9.022;2024-03-02T12:55:51;1.20;;;1.20;;
2622;SDS011;1321;48.690;9.022;2024-03-02T12:58:21;1.20;;;1.10;;
2622;SDS011;1321;48.690;9.022;2024-03-02T13:01:06;1.20;;;1.00;;
2622;SDS011;1321;48.690;9.022;2024-03-02T13:03:36;0.80;;;0.80;;
2622;SDS011;1321;48.690;9.022;2024-03-02T13:06:05;1.52;;;1.10;;
2622;SDS011;1321;48.690;9.022;2024-03-02T13:08:34;1.20;;;1.00;;
2622;SDS011;1321;48.690;9.022;2024-03-02T13:11:02;1.20;;;1.10;;
2622;SDS011;1321;48.690;9.022;2024-03-02T13:13:33;0.90;;;0.90;;
2622;SDS011;1321;48.690;9.022;2024-03-02T13:16:02;0.97;;;0.97;;
2622;SDS011;1321;48.690;9.022;2024-03-02T13:18:33;1.30;;;1.00;;
2622;SDS011;1321;48.690;9.022;2024-03-02T13:21:01;1.00;;;0.90;;
2622;SDS011;1321;48.690;9.022;2024-03-02T13:23:29;1.43;;;0.80;;
2622;SDS011;1321;48.690;9.022;2024-03-02T13:25:58;0.80;;;0.80;;
2622;SDS011;1321;48.690;9.022;2024-03-02T13:28:26;0.97;;;0.97;;
2622;SDS011;1321;48.690;9.022;2024-03-02T13:30:54;0.90;;;0.90;;
2622;SDS011;1321;48.690;9.022;2024-03-02T13:33:22;0.90;;;0.90;;
2622;SDS011;1321;48.690;9.022;2024-03-02T13:35:52;0.90;;;0.90;;
2622;SDS011;1321;48.690;9.022;2024-03-02T13:38:20;1.53;;;0.83;;
2622;SDS011;1321;48.690;9.022;2024-03-02T13:40:49;1.13;;;1.03;;
2622;SDS011;1321;48.690;9.022;2024-03-02T13:43:18;0.80;;;0.80;;
2622;SDS011;1321;48.690;9.022;2024-03-02T13:45:46;1.10;;;0.80;;
2622;SDS011;1321;48.690;9.022;2024-03-02T13:48:15;0.83;;;0.83;;
2622;SDS011;1321;48.690;9.022;2024-03-02T13:50:43;0.90;;;0.90;;
2622;SDS011;1321;48.690;9.022;2024-03-02T13:53:13;1.00;;;1.00;;
2622;SDS011;1321;48.690;9.022;2024-03-02T13:55:41;1.00;;;1.00;;
2622;SDS011;1321;48.690;9.022;2024-03-02T13:58:09;0.90;;;0.90;;
2622;SDS011;1321;48.690;9.022;2024-03-02T14:00:38;0.90;;;0.90;;
2622;SDS011;1321;48.690;9.022;2024-03-02T14:03:06;0.93;;;0.93;;
2622;SDS011;1321;48.690;9.022;2024-03-02T14:05:35;1.17;;;1.10;;
2622;SDS011;1321;48.690;9.022;2024-03-02T14:08:04;1.10;;;1.10;;
2622;SDS011;1321;48.690;9.022;2024-03-02T14:10:33;1.20;;;1.10;;
2622;SDS011;1321;48.690;9.022;2024-03-02T14:13:02;1.23;;;1.13;;
2622;SDS011;1321;48.690;9.022;2024-03-02T14:15:30;1.20;;;1.20;;
2622;SDS011;1321;48.690;9.022;2024-03-02T14:17:58;1.10;;;1.00;;
2622;SDS011;1321;48.690;9.022;2024-03-02T14:20:27;1.13;;;1.00;;
2622;SDS011;1321;48.690;9.022;2024-03-02T14:22:55;1.00;;;1.00;;
2622;SDS011;1321;48.690;9.022;2024-03-02T14:25:25;1.20;;;1.10;;
2622;SDS011;1321;48.690;9.022;2024-03-02T14:27:58;1.23;;;1.13;;
2622;SDS011;1321;48.690;9.022;2024-03-02T14:30:46;1.20;;;1.10;;
2622;SDS011;1321;48.690;9.022;2024-03-02T14:33:14;1.10;;;1.10;;
2622;SDS011;1321;48.690;9.022;2024-03-02T14:35:43;1.13;;;1.13;;
2622;SDS011;1321;48.690;9.022;2024-03-02T14:38:12;2.00;;;1.10;;
2622;SDS011;1321;48.690;9.022;2024-03-02T14:40:41;1.00;;;1.00;;
2622;SDS011;1321;48.690;9.022;2024-03-02T14:43:11;1.37;;;1.27;;
2622;SDS011;1321;48.690;9.022;2024-03-02T14:45:39;1.30;;;1.20;;
2622;SDS011;1321;48.690;9.022;2024-03-02T14:48:07;1.27;;;1.17;;
2622;SDS011;1321;48.690;9.022;2024-03-02T14:50:35;1.13;;;1.13;;
2622;SDS011;1321;48.690;9.022;2024-03-02T14:53:04;1.80;;;1.70;;
2622;SDS011;1321;48.690;9.022;2024-03-02T14:55:33;1.33;;;1.23;;
2622;SDS011;1321;48.690;9.022;2024-03-02T14:58:01;2.13;;;1.20;;
2622;SDS011;1321;48.690;9.022;2024-03-02T15:00:31;1.20;;;1.10;;
2622;SDS011;1321;48.690;9.022;2024-03-02T15:02:59;1.07;;;1.07;;
2622;SDS011;1321;48.690;9.022;2024-03-02T15:05:28;1.43;;;1.30;;
2622;SDS011;1321;48.690;9.022;2024-03-02T15:07:56;1.17;;;1.10;;
2622;SDS011;1321;48.690;9.022;2024-03-02T15:10:25;1.20;;;1.20;;
2622;SDS011;1321;48.690;9.022;2024-03-02T15:12:53;1.27;;;1.20;;
2622;SDS011;1321;48.690;9.022;2024-03-02T15:15:22;1.70;;;1.60;;
2622;SDS011;1321;48.690;9.022;2024-03-02T15:17:51;1.40;;;1.30;;
2622;SDS011;1321;48.690;9.022;2024-03-02T15:20:20;1.40;;;1.40;;
2622;SDS011;1321;48.690;9.022;2024-03-02T15:22:48;1.33;;;1.23;;
2622;SDS011;1321;48.690;9.022;2024-03-02T15:25:16;1.57;;;1.20;;
2622;SDS011;1321;48.690;9.022;2024-03-02T15:27:44;1.50;;;1.40;;